sensor_id;sensor_type;location;lat;lon;timestamp;temperature;humidity
46366;DHT22;32073;49.166;8.076;2022-12-29T00:01:15;13.50;59.50
46366;DHT22;32073;49.166;8.076;2022-12-29T00:05:15;13.50;59.30
46366;DHT22;32073;49.166;8.076;2022-12-29T00:09:16;13.50;59.30
46366;DHT22;32073;49.166;8.076;2022-12-29T00:13:17;13.50;59.40
46366;DHT22;32073;49.166;8.076;2022-12-29T00:17:36;13.50;59.50
46366;DHT22;32073;49.166;8.076;2022-12-29T00:21:38;13.50;59.80
46366;DHT22;32073;49.166;8.076;2022-12-29T00:25:57;13.70;59.90
46366;DHT22;32073;49.166;8.076;2022-12-29T00:30:17;13.70;59.90
46366;DHT22;32073;49.166;8.076;2022-12-29T00:34:38;13.80;59.80
46366;DHT22;32073;49.166;8.076;2022-12-29T00:39:00;13.90;60.00
46366;DHT22;32073;49.166;8.076;2022-12-29T00:43:28;14.00;60.00
46366;DHT22;32073;49.166;8.076;2022-12-29T00:47:47;14.00;60.00
46366;DHT22;32073;49.166;8.076;2022-12-29T00:51:48;14.10;60.10
46366;DHT22;32073;49.166;8.076;2022-12-29T00:55:50;14.10;60.10
46366;DHT22;32073;49.166;8.076;2022-12-29T00:59:50;14.10;60.20
46366;DHT22;32073;49.166;8.076;2022-12-29T01:03:51;14.20;60.20
46366;DHT22;32073;49.166;8.076;2022-12-29T01:07:52;14.10;60.20
46366;DHT22;32073;49.166;8.076;2022-12-29T01:11:53;14.20;60.30
46366;DHT22;32073;49.166;8.076;2022-12-29T01:15:54;14.20;60.30
46366;DHT22;32073;49.166;8.076;2022-12-29T01:19:55;14.10;60.30
46366;DHT22;32073;49.166;8.076;2022-12-29T01:23:56;14.20;60.40
46366;DHT22;32073;49.166;8.076;2022-12-29T01:27:57;14.20;60.40
46366;DHT22;32073;49.166;8.076;2022-12-29T01:31:57;14.20;60.50
46366;DHT22;32073;49.166;8.076;2022-12-29T01:36:02;14.20;60.70
46366;DHT22;32073;49.166;8.076;2022-12-29T01:40:05;14.20;60.90
46366;DHT22;32073;49.166;8.076;2022-12-29T01:48:48;14.20;61.10
46366;DHT22;32073;49.166;8.076;2022-12-29T01:52:59;14.20;61.00
46366;DHT22;32073;49.166;8.076;2022-12-29T01:57:10;14.20;61.10
46366;DHT22;32073;49.166;8.076;2022-12-29T02:01:14;14.20;61.10
46366;DHT22;32073;49.166;8.076;2022-12-29T02:05:33;14.20;61.20
46366;DHT22;32073;49.166;8.076;2022-12-29T02:09:37;14.20;61.20
46366;DHT22;32073;49.166;8.076;2022-12-29T02:13:38;14.20;61.10
46366;DHT22;32073;49.166;8.076;2022-12-29T02:27:34;14.20;61.40
46366;DHT22;32073;49.166;8.076;2022-12-29T02:31:59;14.10;61.50
46366;DHT22;32073;49.166;8.076;2022-12-29T02:36:24;14.10;61.40
46366;DHT22;32073;49.166;8.076;2022-12-29T02:40:41;14.20;61.40
46366;DHT22;32073;49.166;8.076;2022-12-29T02:49:27;14.20;61.40
46366;DHT22;32073;49.166;8.076;2022-12-29T02:53:40;14.20;61.40
46366;DHT22;32073;49.166;8.076;2022-12-29T02:58:18;14.20;61.20
46366;DHT22;32073;49.166;8.076;2022-12-29T03:07:22;14.20;61.00
46366;DHT22;32073;49.166;8.076;2022-12-29T03:11:34;14.20;60.80
46366;DHT22;32073;49.166;8.076;2022-12-29T03:16:02;14.20;60.50
46366;DHT22;32073;49.166;8.076;2022-12-29T03:20:09;14.20;60.40
46366;DHT22;32073;49.166;8.076;2022-12-29T03:24:16;14.20;60.40
46366;DHT22;32073;49.166;8.076;2022-12-29T03:28:24;14.10;60.30
46366;DHT22;32073;49.166;8.076;2022-12-29T03:32:55;14.10;60.50
46366;DHT22;32073;49.166;8.076;2022-12-29T03:37:06;14.00;60.20
46366;DHT22;32073;49.166;8.076;2022-12-29T03:41:14;14.00;60.20
46366;DHT22;32073;49.166;8.076;2022-12-29T03:45:20;14.00;60.20
46366;DHT22;32073;49.166;8.076;2022-12-29T03:49:20;14.00;60.20
46366;DHT22;32073;49.166;8.076;2022-12-29T03:53:21;13.90;60.30
46366;DHT22;32073;49.166;8.076;2022-12-29T03:57:22;13.90;60.20
46366;DHT22;32073;49.166;8.076;2022-12-29T04:01:22;13.90;60.30
46366;DHT22;32073;49.166;8.076;2022-12-29T04:05:23;13.90;60.30
46366;DHT22;32073;49.166;8.076;2022-12-29T04:09:24;13.90;60.40
46366;DHT22;32073;49.166;8.076;2022-12-29T04:13:24;14.00;60.50
46366;DHT22;32073;49.166;8.076;2022-12-29T04:17:25;14.00;60.40
46366;DHT22;32073;49.166;8.076;2022-12-29T04:21:26;14.00;60.40
46366;DHT22;32073;49.166;8.076;2022-12-29T04:25:26;14.10;60.50
46366;DHT22;32073;49.166;8.076;2022-12-29T04:29:27;14.10;60.50
46366;DHT22;32073;49.166;8.076;2022-12-29T04:33:28;14.20;60.50
46366;DHT22;32073;49.166;8.076;2022-12-29T04:37:29;14.10;60.40
46366;DHT22;32073;49.166;8.076;2022-12-29T04:41:29;14.30;60.60
46366;DHT22;32073;49.166;8.076;2022-12-29T04:45:30;14.30;60.80
46366;DHT22;32073;49.166;8.076;2022-12-29T04:49:30;14.30;60.80
46366;DHT22;32073;49.166;8.076;2022-12-29T04:53:31;14.40;60.90
46366;DHT22;32073;49.166;8.076;2022-12-29T04:57:32;14.30;60.70
46366;DHT22;32073;49.166;8.076;2022-12-29T05:01:33;14.30;60.90
46366;DHT22;32073;49.166;8.076;2022-12-29T05:05:33;14.30;61.30
46366;DHT22;32073;49.166;8.076;2022-12-29T05:09:34;14.20;60.90
46366;DHT22;32073;49.166;8.076;2022-12-29T05:13:35;14.20;60.80
46366;DHT22;32073;49.166;8.076;2022-12-29T05:17:36;14.10;60.80
46366;DHT22;32073;49.166;8.076;2022-12-29T05:21:36;14.10;60.90
46366;DHT22;32073;49.166;8.076;2022-12-29T05:25:37;14.00;60.90
46366;DHT22;32073;49.166;8.076;2022-12-29T05:29:37;14.00;60.90
46366;DHT22;32073;49.166;8.076;2022-12-29T05:33:38;14.00;60.90
46366;DHT22;32073;49.166;8.076;2022-12-29T05:37:39;14.00;61.00
46366;DHT22;32073;49.166;8.076;2022-12-29T05:41:39;14.00;61.10
46366;DHT22;32073;49.166;8.076;2022-12-29T05:45:40;14.00;61.10
46366;DHT22;32073;49.166;8.076;2022-12-29T05:49:41;14.10;61.20
46366;DHT22;32073;49.166;8.076;2022-12-29T05:53:41;14.10;61.10
46366;DHT22;32073;49.166;8.076;2022-12-29T05:57:42;14.20;61.10
46366;DHT22;32073;49.166;8.076;2022-12-29T06:01:43;14.30;61.10
46366;DHT22;32073;49.166;8.076;2022-12-29T06:05:45;14.30;61.00
46366;DHT22;32073;49.166;8.076;2022-12-29T06:09:46;14.40;60.90
46366;DHT22;32073;49.166;8.076;2022-12-29T06:13:47;14.40;60.80
46366;DHT22;32073;49.166;8.076;2022-12-29T06:17:47;14.40;60.60
46366;DHT22;32073;49.166;8.076;2022-12-29T06:21:48;14.40;60.50
46366;DHT22;32073;49.166;8.076;2022-12-29T06:25:48;14.40;60.50
46366;DHT22;32073;49.166;8.076;2022-12-29T06:29:49;14.50;60.50
46366;DHT22;32073;49.166;8.076;2022-12-29T06:33:50;14.50;60.50
46366;DHT22;32073;49.166;8.076;2022-12-29T06:37:51;14.50;60.40
46366;DHT22;32073;49.166;8.076;2022-12-29T06:41:52;14.50;60.40
46366;DHT22;32073;49.166;8.076;2022-12-29T06:45:54;14.50;60.20
46366;DHT22;32073;49.166;8.076;2022-12-29T06:49:54;14.50;60.10
46366;DHT22;32073;49.166;8.076;2022-12-29T06:53:55;14.40;60.00
46366;DHT22;32073;49.166;8.076;2022-12-29T06:57:57;14.40;60.00
46366;DHT22;32073;49.166;8.076;2022-12-29T07:01:58;14.40;60.00
46366;DHT22;32073;49.166;8.076;2022-12-29T07:05:59;14.40;59.90
46366;DHT22;32073;49.166;8.076;2022-12-29T07:10:00;14.40;59.90
46366;DHT22;32073;49.166;8.076;2022-12-29T07:14:01;14.40;59.90
46366;DHT22;32073;49.166;8.076;2022-12-29T07:18:02;14.40;59.80
46366;DHT22;32073;49.166;8.076;2022-12-29T07:22:03;14.40;59.80
46366;DHT22;32073;49.166;8.076;2022-12-29T07:26:06;14.40;59.70
46366;DHT22;32073;49.166;8.076;2022-12-29T07:30:09;14.50;59.70
46366;DHT22;32073;49.166;8.076;2022-12-29T07:34:10;14.50;59.60
46366;DHT22;32073;49.166;8.076;2022-12-29T07:38:11;14.50;59.50
46366;DHT22;32073;49.166;8.076;2022-12-29T07:42:11;14.50;59.50
46366;DHT22;32073;49.166;8.076;2022-12-29T07:46:12;14.50;59.50
46366;DHT22;32073;49.166;8.076;2022-12-29T07:50:13;14.50;59.40
46366;DHT22;32073;49.166;8.076;2022-12-29T07:54:13;14.60;59.40
46366;DHT22;32073;49.166;8.076;2022-12-29T07:58:14;14.60;59.40
46366;DHT22;32073;49.166;8.076;2022-12-29T08:02:15;14.60;59.30
46366;DHT22;32073;49.166;8.076;2022-12-29T08:06:15;14.60;59.30
46366;DHT22;32073;49.166;8.076;2022-12-29T08:10:16;14.70;59.30
46366;DHT22;32073;49.166;8.076;2022-12-29T08:14:17;14.70;59.30
46366;DHT22;32073;49.166;8.076;2022-12-29T08:18:18;14.80;59.30
46366;DHT22;32073;49.166;8.076;2022-12-29T08:22:19;14.80;59.30
46366;DHT22;32073;49.166;8.076;2022-12-29T08:26:19;14.90;59.20
46366;DHT22;32073;49.166;8.076;2022-12-29T08:30:20;15.00;59.20
46366;DHT22;32073;49.166;8.076;2022-12-29T08:34:21;15.00;59.30
46366;DHT22;32073;49.166;8.076;2022-12-29T08:38:21;15.10;59.20
46366;DHT22;32073;49.166;8.076;2022-12-29T08:42:22;15.10;59.40
46366;DHT22;32073;49.166;8.076;2022-12-29T08:46:24;15.20;59.30
46366;DHT22;32073;49.166;8.076;2022-12-29T08:50:24;15.30;59.20
46366;DHT22;32073;49.166;8.076;2022-12-29T08:54:25;15.30;59.10
46366;DHT22;32073;49.166;8.076;2022-12-29T08:58:27;15.30;59.00
46366;DHT22;32073;49.166;8.076;2022-12-29T09:02:27;15.40;59.20
46366;DHT22;32073;49.166;8.076;2022-12-29T09:06:28;15.40;59.20
46366;DHT22;32073;49.166;8.076;2022-12-29T09:10:29;15.40;59.30
46366;DHT22;32073;49.166;8.076;2022-12-29T09:14:29;15.40;59.30
46366;DHT22;32073;49.166;8.076;2022-12-29T09:18:31;15.40;59.40
46366;DHT22;32073;49.166;8.076;2022-12-29T09:22:32;15.40;59.50
46366;DHT22;32073;49.166;8.076;2022-12-29T09:26:32;15.40;59.50
46366;DHT22;32073;49.166;8.076;2022-12-29T09:30:33;15.40;59.70
46366;DHT22;32073;49.166;8.076;2022-12-29T09:34:34;15.30;59.80
46366;DHT22;32073;49.166;8.076;2022-12-29T09:38:36;15.20;59.90
46366;DHT22;32073;49.166;8.076;2022-12-29T09:43:17;15.20;59.90
46366;DHT22;32073;49.166;8.076;2022-12-29T09:47:25;15.20;59.90
46366;DHT22;32073;49.166;8.076;2022-12-29T09:51:27;15.20;59.90
46366;DHT22;32073;49.166;8.076;2022-12-29T09:55:59;15.20;59.60
46366;DHT22;32073;49.166;8.076;2022-12-29T10:04:17;15.10;59.50
46366;DHT22;32073;49.166;8.076;2022-12-29T10:12:53;15.10;59.50
46366;DHT22;32073;49.166;8.076;2022-12-29T10:17:10;15.10;59.60
46366;DHT22;32073;49.166;8.076;2022-12-29T10:25:46;15.00;59.80
46366;DHT22;32073;49.166;8.076;2022-12-29T10:29:51;15.10;59.80
46366;DHT22;32073;49.166;8.076;2022-12-29T10:34:01;15.10;59.70
46366;DHT22;32073;49.166;8.076;2022-12-29T10:38:29;15.10;59.60
46366;DHT22;32073;49.166;8.076;2022-12-29T10:42:40;15.10;59.60
46366;DHT22;32073;49.166;8.076;2022-12-29T10:46:44;15.00;59.50
46366;DHT22;32073;49.166;8.076;2022-12-29T10:50:56;15.00;59.50
46366;DHT22;32073;49.166;8.076;2022-12-29T10:55:00;15.00;59.50
46366;DHT22;32073;49.166;8.076;2022-12-29T10:59:13;14.90;59.70
46366;DHT22;32073;49.166;8.076;2022-12-29T11:03:50;14.90;59.70
46366;DHT22;32073;49.166;8.076;2022-12-29T11:08:03;15.00;59.90
46366;DHT22;32073;49.166;8.076;2022-12-29T11:12:27;15.10;60.40
46366;DHT22;32073;49.166;8.076;2022-12-29T11:16:32;15.20;60.00
46366;DHT22;32073;49.166;8.076;2022-12-29T11:20:36;15.30;60.10
46366;DHT22;32073;49.166;8.076;2022-12-29T11:24:45;15.30;60.10
46366;DHT22;32073;49.166;8.076;2022-12-29T11:33:17;15.40;60.00
46366;DHT22;32073;49.166;8.076;2022-12-29T11:37:20;15.40;60.20
46366;DHT22;32073;49.166;8.076;2022-12-29T11:41:31;15.50;60.00
46366;DHT22;32073;49.166;8.076;2022-12-29T11:45:34;15.60;59.80
46366;DHT22;32073;49.166;8.076;2022-12-29T11:49:35;15.70;59.40
46366;DHT22;32073;49.166;8.076;2022-12-29T11:53:47;15.80;59.30
46366;DHT22;32073;49.166;8.076;2022-12-29T11:57:58;15.80;58.50
46366;DHT22;32073;49.166;8.076;2022-12-29T12:02:28;15.90;58.60
46366;DHT22;32073;49.166;8.076;2022-12-29T12:07:00;15.90;58.40
46366;DHT22;32073;49.166;8.076;2022-12-29T12:11:16;16.00;58.20
46366;DHT22;32073;49.166;8.076;2022-12-29T12:15:27;15.90;58.20
46366;DHT22;32073;49.166;8.076;2022-12-29T12:19:34;16.00;58.30
46366;DHT22;32073;49.166;8.076;2022-12-29T12:28:37;16.10;58.20
46366;DHT22;32073;49.166;8.076;2022-12-29T12:37:30;16.10;58.20
46366;DHT22;32073;49.166;8.076;2022-12-29T12:42:49;16.10;57.80
46366;DHT22;32073;49.166;8.076;2022-12-29T12:52:01;15.80;58.30
46366;DHT22;32073;49.166;8.076;2022-12-29T13:10:16;15.80;58.70
46366;DHT22;32073;49.166;8.076;2022-12-29T13:14:57;15.90;58.80
46366;DHT22;32073;49.166;8.076;2022-12-29T13:24:16;16.00;59.00
46366;DHT22;32073;49.166;8.076;2022-12-29T13:37:55;16.30;58.70
46366;DHT22;32073;49.166;8.076;2022-12-29T13:42:01;16.30;58.50
46366;DHT22;32073;49.166;8.076;2022-12-29T13:46:12;16.30;58.50
46366;DHT22;32073;49.166;8.076;2022-12-29T13:50:18;16.30;58.30
46366;DHT22;32073;49.166;8.076;2022-12-29T13:54:44;16.20;58.20
46366;DHT22;32073;49.166;8.076;2022-12-29T13:58:56;16.20;58.00
46366;DHT22;32073;49.166;8.076;2022-12-29T14:07:56;16.10;58.10
46366;DHT22;32073;49.166;8.076;2022-12-29T14:12:38;16.10;58.60
46366;DHT22;32073;49.166;8.076;2022-12-29T14:16:40;16.00;58.80
46366;DHT22;32073;49.166;8.076;2022-12-29T14:24:53;15.80;58.70
46366;DHT22;32073;49.166;8.076;2022-12-29T14:28:54;15.60;58.80
46366;DHT22;32073;49.166;8.076;2022-12-29T14:33:03;15.40;58.80
46366;DHT22;32073;49.166;8.076;2022-12-29T14:37:33;15.30;59.00
46366;DHT22;32073;49.166;8.076;2022-12-29T14:41:38;15.20;59.20
46366;DHT22;32073;49.166;8.076;2022-12-29T14:45:41;15.00;59.20
46366;DHT22;32073;49.166;8.076;2022-12-29T14:49:44;14.90;59.20
46366;DHT22;32073;49.166;8.076;2022-12-29T14:53:51;14.80;59.30
46366;DHT22;32073;49.166;8.076;2022-12-29T14:57:57;14.80;59.80
46366;DHT22;32073;49.166;8.076;2022-12-29T15:02:04;14.70;59.70
46366;DHT22;32073;49.166;8.076;2022-12-29T15:06:13;14.70;59.70
46366;DHT22;32073;49.166;8.076;2022-12-29T15:10:19;14.60;59.60
46366;DHT22;32073;49.166;8.076;2022-12-29T15:14:30;14.60;59.60
46366;DHT22;32073;49.166;8.076;2022-12-29T15:18:33;14.50;59.70
46366;DHT22;32073;49.166;8.076;2022-12-29T15:22:34;14.50;59.60
46366;DHT22;32073;49.166;8.076;2022-12-29T15:26:45;14.40;59.60
46366;DHT22;32073;49.166;8.076;2022-12-29T15:31:02;14.30;59.90
46366;DHT22;32073;49.166;8.076;2022-12-29T15:35:31;14.20;60.00
46366;DHT22;32073;49.166;8.076;2022-12-29T15:39:36;14.20;60.20
46366;DHT22;32073;49.166;8.076;2022-12-29T15:43:53;14.10;59.80
46366;DHT22;32073;49.166;8.076;2022-12-29T15:48:24;14.00;59.90
46366;DHT22;32073;49.166;8.076;2022-12-29T15:52:25;14.00;60.00
46366;DHT22;32073;49.166;8.076;2022-12-29T15:56:31;13.90;60.10
46366;DHT22;32073;49.166;8.076;2022-12-29T16:00:35;14.00;60.40
46366;DHT22;32073;49.166;8.076;2022-12-29T16:04:38;13.90;60.40
46366;DHT22;32073;49.166;8.076;2022-12-29T16:08:39;14.00;60.60
46366;DHT22;32073;49.166;8.076;2022-12-29T16:12:40;14.00;60.60
46366;DHT22;32073;49.166;8.076;2022-12-29T16:16:43;14.00;60.60
46366;DHT22;32073;49.166;8.076;2022-12-29T16:20:45;14.10;60.70
46366;DHT22;32073;49.166;8.076;2022-12-29T16:24:46;14.10;60.60
46366;DHT22;32073;49.166;8.076;2022-12-29T16:28:54;14.10;60.60
46366;DHT22;32073;49.166;8.076;2022-12-29T16:32:59;14.20;60.80
46366;DHT22;32073;49.166;8.076;2022-12-29T16:37:28;14.20;60.80
46366;DHT22;32073;49.166;8.076;2022-12-29T16:41:31;14.30;61.00
46366;DHT22;32073;49.166;8.076;2022-12-29T16:49:51;14.40;61.00
46366;DHT22;32073;49.166;8.076;2022-12-29T16:53:58;14.40;60.90
46366;DHT22;32073;49.166;8.076;2022-12-29T16:58:00;14.40;60.90
46366;DHT22;32073;49.166;8.076;2022-12-29T17:02:15;14.40;60.80
46366;DHT22;32073;49.166;8.076;2022-12-29T17:06:18;14.50;60.90
46366;DHT22;32073;49.166;8.076;2022-12-29T17:10:20;14.50;60.90
46366;DHT22;32073;49.166;8.076;2022-12-29T17:14:47;14.50;60.90
46366;DHT22;32073;49.166;8.076;2022-12-29T17:18:49;14.60;60.90
46366;DHT22;32073;49.166;8.076;2022-12-29T17:22:51;14.60;60.90
46366;DHT22;32073;49.166;8.076;2022-12-29T17:26:56;14.60;61.50
46366;DHT22;32073;49.166;8.076;2022-12-29T17:31:03;14.60;60.90
46366;DHT22;32073;49.166;8.076;2022-12-29T17:35:16;14.70;60.70
46366;DHT22;32073;49.166;8.076;2022-12-29T17:39:17;14.60;60.70
46366;DHT22;32073;49.166;8.076;2022-12-29T17:43:18;14.60;60.60
46366;DHT22;32073;49.166;8.076;2022-12-29T17:47:19;14.60;60.70
46366;DHT22;32073;49.166;8.076;2022-12-29T17:51:20;14.50;60.70
46366;DHT22;32073;49.166;8.076;2022-12-29T17:55:23;14.50;61.40
46366;DHT22;32073;49.166;8.076;2022-12-29T17:59:30;14.50;60.90
46366;DHT22;32073;49.166;8.076;2022-12-29T18:03:39;14.50;60.80
46366;DHT22;32073;49.166;8.076;2022-12-29T18:07:40;14.50;60.70
46366;DHT22;32073;49.166;8.076;2022-12-29T18:11:42;14.40;60.50
46366;DHT22;32073;49.166;8.076;2022-12-29T18:15:43;14.30;60.60
46366;DHT22;32073;49.166;8.076;2022-12-29T18:19:44;14.30;60.70
46366;DHT22;32073;49.166;8.076;2022-12-29T18:23:45;14.20;60.70
46366;DHT22;32073;49.166;8.076;2022-12-29T18:27:46;14.20;60.70
46366;DHT22;32073;49.166;8.076;2022-12-29T18:31:47;14.20;60.80
46366;DHT22;32073;49.166;8.076;2022-12-29T18:35:51;14.20;60.80
46366;DHT22;32073;49.166;8.076;2022-12-29T18:39:54;14.20;60.90
46366;DHT22;32073;49.166;8.076;2022-12-29T18:43:57;14.10;60.80
46366;DHT22;32073;49.166;8.076;2022-12-29T18:47:59;14.10;60.90
46366;DHT22;32073;49.166;8.076;2022-12-29T18:52:00;14.10;60.90
46366;DHT22;32073;49.166;8.076;2022-12-29T18:56:00;14.10;61.40
46366;DHT22;32073;49.166;8.076;2022-12-29T19:00:02;14.20;60.90
46366;DHT22;32073;49.166;8.076;2022-12-29T19:04:03;14.10;60.80
46366;DHT22;32073;49.166;8.076;2022-12-29T19:08:05;14.10;60.70
46366;DHT22;32073;49.166;8.076;2022-12-29T19:12:39;14.10;60.70
46366;DHT22;32073;49.166;8.076;2022-12-29T19:16:40;14.10;60.70
46366;DHT22;32073;49.166;8.076;2022-12-29T19:20:42;14.00;60.40
46366;DHT22;32073;49.166;8.076;2022-12-29T19:24:43;14.00;60.50
46366;DHT22;32073;49.166;8.076;2022-12-29T19:28:44;13.90;60.60
46366;DHT22;32073;49.166;8.076;2022-12-29T19:32:48;13.90;60.60
46366;DHT22;32073;49.166;8.076;2022-12-29T19:36:51;13.90;60.70
46366;DHT22;32073;49.166;8.076;2022-12-29T19:40:52;13.80;60.70
46366;DHT22;32073;49.166;8.076;2022-12-29T19:44:53;13.80;60.80
46366;DHT22;32073;49.166;8.076;2022-12-29T19:48:54;13.80;60.80
46366;DHT22;32073;49.166;8.076;2022-12-29T19:52:58;13.80;60.80
46366;DHT22;32073;49.166;8.076;2022-12-29T19:56:58;13.70;60.80
46366;DHT22;32073;49.166;8.076;2022-12-29T20:01:04;13.80;60.90
46366;DHT22;32073;49.166;8.076;2022-12-29T20:05:06;13.80;61.00
46366;DHT22;32073;49.166;8.076;2022-12-29T20:09:07;13.70;60.90
46366;DHT22;32073;49.166;8.076;2022-12-29T20:13:08;13.80;61.00
46366;DHT22;32073;49.166;8.076;2022-12-29T20:17:11;13.70;61.00
46366;DHT22;32073;49.166;8.076;2022-12-29T20:21:15;13.80;61.00
46366;DHT22;32073;49.166;8.076;2022-12-29T20:25:17;13.80;61.00
46366;DHT22;32073;49.166;8.076;2022-12-29T20:29:19;13.80;61.00
46366;DHT22;32073;49.166;8.076;2022-12-29T20:33:20;13.80;61.00
46366;DHT22;32073;49.166;8.076;2022-12-29T20:37:21;13.80;61.00
46366;DHT22;32073;49.166;8.076;2022-12-29T20:41:22;13.80;60.90
46366;DHT22;32073;49.166;8.076;2022-12-29T20:45:23;13.80;60.90
46366;DHT22;32073;49.166;8.076;2022-12-29T20:49:24;14.00;61.10
46366;DHT22;32073;49.166;8.076;2022-12-29T20:53:30;13.70;60.80
46366;DHT22;32073;49.166;8.076;2022-12-29T20:57:31;13.70;60.80
46366;DHT22;32073;49.166;8.076;2022-12-29T21:01:32;13.70;60.70
46366;DHT22;32073;49.166;8.076;2022-12-29T21:05:35;13.70;60.80
46366;DHT22;32073;49.166;8.076;2022-12-29T21:09:37;13.70;60.90
46366;DHT22;32073;49.166;8.076;2022-12-29T21:13:38;13.70;60.90
46366;DHT22;32073;49.166;8.076;2022-12-29T21:17:38;13.70;61.00
46366;DHT22;32073;49.166;8.076;2022-12-29T21:21:39;13.70;61.00
46366;DHT22;32073;49.166;8.076;2022-12-29T21:25:42;13.70;60.90
46366;DHT22;32073;49.166;8.076;2022-12-29T21:29:44;13.60;60.90
46366;DHT22;32073;49.166;8.076;2022-12-29T21:33:44;13.60;60.90
46366;DHT22;32073;49.166;8.076;2022-12-29T21:37:45;13.60;61.00
46366;DHT22;32073;49.166;8.076;2022-12-29T21:41:46;13.60;61.20
46366;DHT22;32073;49.166;8.076;2022-12-29T21:45:49;13.60;61.20
46366;DHT22;32073;49.166;8.076;2022-12-29T21:49:50;13.60;61.20
46366;DHT22;32073;49.166;8.076;2022-12-29T21:54:00;13.50;61.10
46366;DHT22;32073;49.166;8.076;2022-12-29T21:58:20;13.50;61.40
46366;DHT22;32073;49.166;8.076;2022-12-29T22:02:39;13.50;61.00
46366;DHT22;32073;49.166;8.076;2022-12-29T22:06:58;13.60;61.10
46366;DHT22;32073;49.166;8.076;2022-12-29T22:11:17;13.50;61.00
46366;DHT22;32073;49.166;8.076;2022-12-29T22:15:37;13.50;60.90
46366;DHT22;32073;49.166;8.076;2022-12-29T22:19:39;13.50;60.90
46366;DHT22;32073;49.166;8.076;2022-12-29T22:23:40;13.50;61.10
46366;DHT22;32073;49.166;8.076;2022-12-29T22:27:41;13.40;61.20
46366;DHT22;32073;49.166;8.076;2022-12-29T22:31:42;13.40;61.40
46366;DHT22;32073;49.166;8.076;2022-12-29T22:35:43;13.40;61.50
46366;DHT22;32073;49.166;8.076;2022-12-29T22:39:44;13.50;61.60
46366;DHT22;32073;49.166;8.076;2022-12-29T22:43:45;13.50;61.70
46366;DHT22;32073;49.166;8.076;2022-12-29T22:47:45;13.50;61.70
46366;DHT22;32073;49.166;8.076;2022-12-29T22:51:46;13.50;61.60
46366;DHT22;32073;49.166;8.076;2022-12-29T22:55:47;13.50;61.60
46366;DHT22;32073;49.166;8.076;2022-12-29T22:59:48;13.50;61.50
46366;DHT22;32073;49.166;8.076;2022-12-29T23:03:51;13.50;61.40
46366;DHT22;32073;49.166;8.076;2022-12-29T23:07:52;13.50;61.20
46366;DHT22;32073;49.166;8.076;2022-12-29T23:11:53;13.40;61.10
46366;DHT22;32073;49.166;8.076;2022-12-29T23:15:54;13.40;61.00
46366;DHT22;32073;49.166;8.076;2022-12-29T23:19:54;13.30;61.00
46366;DHT22;32073;49.166;8.076;2022-12-29T23:23:55;13.20;60.80
46366;DHT22;32073;49.166;8.076;2022-12-29T23:27:56;13.20;60.60
46366;DHT22;32073;49.166;8.076;2022-12-29T23:31:57;13.10;60.50
46366;DHT22;32073;49.166;8.076;2022-12-29T23:35:57;13.00;60.50
46366;DHT22;32073;49.166;8.076;2022-12-29T23:39:58;13.00;60.50
46366;DHT22;32073;49.166;8.076;2022-12-29T23:43:59;12.90;60.50
46366;DHT22;32073;49.166;8.076;2022-12-29T23:48:00;12.80;61.10
46366;DHT22;32073;49.166;8.076;2022-12-29T23:52:01;12.70;60.50
46366;DHT22;32073;49.166;8.076;2022-12-29T23:56:02;12.70;60.50
